sensor_id;sensor_type;location;lat;lon;timestamp;P1;durP1;ratioP1;P2;durP2;ratioP2
81908;SDS011;71372;43.514;1.512;2023-08-08T00:01:39;4.68;;;2.00;;
81908;SDS011;71372;43.514;1.512;2023-08-08T00:04:08;3.28;;;1.77;;
81908;SDS011;71372;43.514;1.512;2023-08-08T00:06:36;4.57;;;1.70;;
81908;SDS011;71372;43.514;1.512;2023-08-08T00:09:02;2.10;;;1.30;;
81908;SDS011;71372;43.514;1.512;2023-08-08T00:11:29;3.35;;;1.80;;
81908;SDS011;71372;43.514;1.512;2023-08-08T00:13:56;6.60;;;1.70;;
81908;SDS011;71372;43.514;1.512;2023-08-08T00:16:22;4.63;;;1.75;;
81908;SDS011;71372;43.514;1.512;2023-08-08T00:18:49;3.17;;;1.58;;
81908;SDS011;71372;43.514;1.512;2023-08-08T00:21:16;3.58;;;1.38;;
81908;SDS011;71372;43.514;1.512;2023-08-08T00:23:42;4.93;;;1.80;;
81908;SDS011;71372;43.514;1.512;2023-08-08T00:26:08;5.13;;;1.60;;
81908;SDS011;71372;43.514;1.512;2023-08-08T00:28:34;5.13;;;1.90;;
81908;SDS011;71372;43.514;1.512;2023-08-08T00:31:00;3.65;;;1.60;;
81908;SDS011;71372;43.514;1.512;2023-08-08T00:33:26;4.07;;;1.50;;
81908;SDS011;71372;43.514;1.512;2023-08-08T00:35:52;5.93;;;1.85;;
81908;SDS011;71372;43.514;1.512;2023-08-08T00:38:18;2.97;;;1.85;;
81908;SDS011;71372;43.514;1.512;2023-08-08T00:40:44;4.90;;;2.00;;
81908;SDS011;71372;43.514;1.512;2023-08-08T00:43:10;3.55;;;1.85;;
81908;SDS011;71372;43.514;1.512;2023-08-08T00:45:37;4.45;;;1.92;;
81908;SDS011;71372;43.514;1.512;2023-08-08T00:48:04;4.60;;;1.83;;
81908;SDS011;71372;43.514;1.512;2023-08-08T00:50:30;3.55;;;1.52;;
81908;SDS011;71372;43.514;1.512;2023-08-08T00:52:56;3.80;;;1.80;;
81908;SDS011;71372;43.514;1.512;2023-08-08T00:55:22;4.25;;;1.95;;
81908;SDS011;71372;43.514;1.512;2023-08-08T00:57:49;4.03;;;1.83;;
81908;SDS011;71372;43.514;1.512;2023-08-08T01:00:15;3.40;;;1.90;;
81908;SDS011;71372;43.514;1.512;2023-08-08T01:02:41;4.68;;;2.08;;
81908;SDS011;71372;43.514;1.512;2023-08-08T01:05:07;3.80;;;1.70;;
81908;SDS011;71372;43.514;1.512;2023-08-08T01:08:07;4.47;;;1.90;;
81908;SDS011;71372;43.514;1.512;2023-08-08T01:10:32;4.60;;;1.55;;
81908;SDS011;71372;43.514;1.512;2023-08-08T01:13:04;3.75;;;1.50;;
81908;SDS011;71372;43.514;1.512;2023-08-08T01:15:34;3.38;;;1.70;;
81908;SDS011;71372;43.514;1.512;2023-08-08T01:18:03;4.00;;;1.45;;
81908;SDS011;71372;43.514;1.512;2023-08-08T01:20:31;3.83;;;2.05;;
81908;SDS011;71372;43.514;1.512;2023-08-08T01:23:03;3.00;;;1.67;;
81908;SDS011;71372;43.514;1.512;2023-08-08T01:25:37;4.30;;;1.50;;
81908;SDS011;71372;43.514;1.512;2023-08-08T01:28:05;2.28;;;1.38;;
81908;SDS011;71372;43.514;1.512;2023-08-08T01:30:32;2.45;;;1.83;;
81908;SDS011;71372;43.514;1.512;2023-08-08T01:32:58;2.65;;;1.65;;
81908;SDS011;71372;43.514;1.512;2023-08-08T01:35:25;4.28;;;1.77;;
81908;SDS011;71372;43.514;1.512;2023-08-08T01:37:56;4.43;;;1.50;;
81908;SDS011;71372;43.514;1.512;2023-08-08T01:40:33;3.53;;;1.52;;
81908;SDS011;71372;43.514;1.512;2023-08-08T01:43:01;3.75;;;1.42;;
81908;SDS011;71372;43.514;1.512;2023-08-08T01:45:29;3.40;;;1.40;;
81908;SDS011;71372;43.514;1.512;2023-08-08T01:47:55;4.03;;;1.50;;
81908;SDS011;71372;43.514;1.512;2023-08-08T01:50:21;1.95;;;1.27;;
81908;SDS011;71372;43.514;1.512;2023-08-08T01:52:48;2.58;;;1.50;;
81908;SDS011;71372;43.514;1.512;2023-08-08T01:55:14;4.75;;;1.75;;
81908;SDS011;71372;43.514;1.512;2023-08-08T01:57:40;6.00;;;1.55;;
81908;SDS011;71372;43.514;1.512;2023-08-08T02:00:06;3.42;;;1.60;;
81908;SDS011;71372;43.514;1.512;2023-08-08T02:02:33;2.85;;;1.40;;
81908;SDS011;71372;43.514;1.512;2023-08-08T02:05:01;3.38;;;1.60;;
81908;SDS011;71372;43.514;1.512;2023-08-08T02:07:27;3.30;;;1.63;;
81908;SDS011;71372;43.514;1.512;2023-08-08T02:09:53;3.08;;;1.50;;
81908;SDS011;71372;43.514;1.512;2023-08-08T02:12:19;3.28;;;1.55;;
81908;SDS011;71372;43.514;1.512;2023-08-08T02:14:45;3.25;;;1.70;;
81908;SDS011;71372;43.514;1.512;2023-08-08T02:17:11;4.70;;;1.80;;
81908;SDS011;71372;43.514;1.512;2023-08-08T02:19:37;2.53;;;1.63;;
81908;SDS011;71372;43.514;1.512;2023-08-08T02:22:03;3.35;;;1.38;;
81908;SDS011;71372;43.514;1.512;2023-08-08T02:24:29;2.92;;;1.73;;
81908;SDS011;71372;43.514;1.512;2023-08-08T02:26:55;4.10;;;1.73;;
81908;SDS011;71372;43.514;1.512;2023-08-08T02:29:21;3.63;;;1.75;;
81908;SDS011;71372;43.514;1.512;2023-08-08T02:31:47;3.55;;;1.73;;
81908;SDS011;71372;43.514;1.512;2023-08-08T02:34:13;4.50;;;1.95;;
81908;SDS011;71372;43.514;1.512;2023-08-08T02:36:39;3.40;;;1.58;;
81908;SDS011;71372;43.514;1.512;2023-08-08T02:39:05;3.90;;;1.77;;
81908;SDS011;71372;43.514;1.512;2023-08-08T02:41:31;2.60;;;1.60;;
81908;SDS011;71372;43.514;1.512;2023-08-08T02:43:57;2.58;;;1.40;;
81908;SDS011;71372;43.514;1.512;2023-08-08T02:46:23;3.50;;;1.58;;
81908;SDS011;71372;43.514;1.512;2023-08-08T02:48:49;3.28;;;1.95;;
81908;SDS011;71372;43.514;1.512;2023-08-08T02:51:15;3.28;;;1.40;;
81908;SDS011;71372;43.514;1.512;2023-08-08T02:53:41;5.80;;;1.95;;
81908;SDS011;71372;43.514;1.512;2023-08-08T02:56:07;3.83;;;1.60;;
81908;SDS011;71372;43.514;1.512;2023-08-08T02:58:33;3.85;;;1.70;;
81908;SDS011;71372;43.514;1.512;2023-08-08T03:00:59;3.58;;;1.63;;
81908;SDS011;71372;43.514;1.512;2023-08-08T03:03:25;3.35;;;1.50;;
81908;SDS011;71372;43.514;1.512;2023-08-08T03:05:51;3.17;;;1.58;;
81908;SDS011;71372;43.514;1.512;2023-08-08T03:08:17;2.63;;;1.50;;
81908;SDS011;71372;43.514;1.512;2023-08-08T03:10:43;3.83;;;1.80;;
81908;SDS011;71372;43.514;1.512;2023-08-08T03:13:09;3.70;;;1.65;;
81908;SDS011;71372;43.514;1.512;2023-08-08T03:15:35;2.58;;;1.45;;
81908;SDS011;71372;43.514;1.512;2023-08-08T03:18:02;5.25;;;1.70;;
81908;SDS011;71372;43.514;1.512;2023-08-08T03:20:28;4.80;;;1.65;;
81908;SDS011;71372;43.514;1.512;2023-08-08T03:22:54;5.13;;;1.80;;
81908;SDS011;71372;43.514;1.512;2023-08-08T03:25:20;5.93;;;1.85;;
81908;SDS011;71372;43.514;1.512;2023-08-08T03:27:46;3.95;;;1.50;;
81908;SDS011;71372;43.514;1.512;2023-08-08T03:30:12;4.18;;;1.73;;
81908;SDS011;71372;43.514;1.512;2023-08-08T03:32:39;4.38;;;1.70;;
81908;SDS011;71372;43.514;1.512;2023-08-08T03:35:05;4.25;;;1.67;;
81908;SDS011;71372;43.514;1.512;2023-08-08T03:37:31;4.53;;;1.55;;
81908;SDS011;71372;43.514;1.512;2023-08-08T03:39:57;3.40;;;1.45;;
81908;SDS011;71372;43.514;1.512;2023-08-08T03:42:23;3.20;;;1.90;;
81908;SDS011;71372;43.514;1.512;2023-08-08T03:44:49;7.35;;;1.65;;
81908;SDS011;71372;43.514;1.512;2023-08-08T03:47:15;3.55;;;1.70;;
81908;SDS011;71372;43.514;1.512;2023-08-08T03:49:41;2.90;;;1.52;;
81908;SDS011;71372;43.514;1.512;2023-08-08T03:52:07;2.97;;;1.60;;
81908;SDS011;71372;43.514;1.512;2023-08-08T03:54:33;2.92;;;1.50;;
81908;SDS011;71372;43.514;1.512;2023-08-08T03:56:59;2.72;;;1.55;;
81908;SDS011;71372;43.514;1.512;2023-08-08T03:59:26;2.97;;;1.65;;
81908;SDS011;71372;43.514;1.512;2023-08-08T04:01:52;4.75;;;1.58;;
81908;SDS011;71372;43.514;1.512;2023-08-08T04:04:18;4.88;;;1.73;;
81908;SDS011;71372;43.514;1.512;2023-08-08T04:06:44;3.60;;;1.60;;
81908;SDS011;71372;43.514;1.512;2023-08-08T04:09:10;3.88;;;1.90;;
81908;SDS011;71372;43.514;1.512;2023-08-08T04:11:36;4.63;;;1.92;;
81908;SDS011;71372;43.514;1.512;2023-08-08T04:14:02;4.75;;;1.73;;
81908;SDS011;71372;43.514;1.512;2023-08-08T04:16:29;5.35;;;1.90;;
81908;SDS011;71372;43.514;1.512;2023-08-08T04:18:55;4.97;;;1.70;;
81908;SDS011;71372;43.514;1.512;2023-08-08T04:21:21;3.03;;;1.88;;
81908;SDS011;71372;43.514;1.512;2023-08-08T04:23:47;3.78;;;1.60;;
81908;SDS011;71372;43.514;1.512;2023-08-08T04:26:13;4.72;;;1.70;;
81908;SDS011;71372;43.514;1.512;2023-08-08T04:28:40;4.72;;;1.70;;
81908;SDS011;71372;43.514;1.512;2023-08-08T04:31:06;3.83;;;1.67;;
81908;SDS011;71372;43.514;1.512;2023-08-08T04:33:32;4.80;;;2.22;;
81908;SDS011;71372;43.514;1.512;2023-08-08T04:35:58;3.63;;;1.70;;
81908;SDS011;71372;43.514;1.512;2023-08-08T04:38:24;3.28;;;1.67;;
81908;SDS011;71372;43.514;1.512;2023-08-08T04:40:50;3.42;;;1.70;;
81908;SDS011;71372;43.514;1.512;2023-08-08T04:43:16;4.93;;;1.52;;
81908;SDS011;71372;43.514;1.512;2023-08-08T04:45:42;3.58;;;1.60;;
81908;SDS011;71372;43.514;1.512;2023-08-08T04:48:08;3.22;;;1.60;;
81908;SDS011;71372;43.514;1.512;2023-08-08T04:50:34;3.97;;;1.48;;
81908;SDS011;71372;43.514;1.512;2023-08-08T04:53:00;3.97;;;1.83;;
81908;SDS011;71372;43.514;1.512;2023-08-08T04:55:26;3.83;;;1.98;;
81908;SDS011;71372;43.514;1.512;2023-08-08T04:57:51;4.57;;;1.70;;
81908;SDS011;71372;43.514;1.512;2023-08-08T05:00:17;5.07;;;1.60;;
81908;SDS011;71372;43.514;1.512;2023-08-08T05:02:43;3.60;;;1.60;;
81908;SDS011;71372;43.514;1.512;2023-08-08T05:05:09;3.72;;;1.55;;
81908;SDS011;71372;43.514;1.512;2023-08-08T05:07:35;3.05;;;1.80;;
81908;SDS011;71372;43.514;1.512;2023-08-08T05:10:03;4.45;;;1.65;;
81908;SDS011;71372;43.514;1.512;2023-08-08T05:12:29;2.92;;;1.67;;
81908;SDS011;71372;43.514;1.512;2023-08-08T05:14:55;5.22;;;1.77;;
81908;SDS011;71372;43.514;1.512;2023-08-08T05:17:21;6.00;;;1.85;;
81908;SDS011;71372;43.514;1.512;2023-08-08T05:19:47;4.10;;;1.70;;
81908;SDS011;71372;43.514;1.512;2023-08-08T05:22:13;2.88;;;1.50;;
81908;SDS011;71372;43.514;1.512;2023-08-08T05:24:39;3.90;;;1.70;;
81908;SDS011;71372;43.514;1.512;2023-08-08T05:27:05;2.40;;;1.50;;
81908;SDS011;71372;43.514;1.512;2023-08-08T05:29:31;3.40;;;1.60;;
81908;SDS011;71372;43.514;1.512;2023-08-08T05:31:57;5.05;;;1.90;;
81908;SDS011;71372;43.514;1.512;2023-08-08T05:34:23;5.35;;;1.70;;
81908;SDS011;71372;43.514;1.512;2023-08-08T05:36:50;4.40;;;2.03;;
81908;SDS011;71372;43.514;1.512;2023-08-08T05:39:16;3.67;;;1.75;;
81908;SDS011;71372;43.514;1.512;2023-08-08T05:41:42;3.35;;;1.67;;
81908;SDS011;71372;43.514;1.512;2023-08-08T05:44:08;4.05;;;1.70;;
81908;SDS011;71372;43.514;1.512;2023-08-08T05:46:34;3.97;;;1.80;;
81908;SDS011;71372;43.514;1.512;2023-08-08T05:49:00;3.10;;;1.58;;
81908;SDS011;71372;43.514;1.512;2023-08-08T05:51:26;2.95;;;1.55;;
81908;SDS011;71372;43.514;1.512;2023-08-08T05:53:52;5.15;;;1.80;;
81908;SDS011;71372;43.514;1.512;2023-08-08T05:56:18;4.22;;;1.98;;
81908;SDS011;71372;43.514;1.512;2023-08-08T05:58:44;3.45;;;1.67;;
81908;SDS011;71372;43.514;1.512;2023-08-08T06:01:10;5.85;;;1.70;;
81908;SDS011;71372;43.514;1.512;2023-08-08T06:03:37;3.92;;;1.70;;
81908;SDS011;71372;43.514;1.512;2023-08-08T06:06:03;5.53;;;1.60;;
81908;SDS011;71372;43.514;1.512;2023-08-08T06:08:30;6.68;;;1.98;;
81908;SDS011;71372;43.514;1.512;2023-08-08T06:10:56;4.93;;;1.98;;
81908;SDS011;71372;43.514;1.512;2023-08-08T06:13:22;5.68;;;2.30;;
81908;SDS011;71372;43.514;1.512;2023-08-08T06:15:48;3.50;;;1.70;;
81908;SDS011;71372;43.514;1.512;2023-08-08T06:18:14;5.35;;;1.90;;
81908;SDS011;71372;43.514;1.512;2023-08-08T06:20:41;5.50;;;2.05;;
81908;SDS011;71372;43.514;1.512;2023-08-08T06:23:07;4.70;;;1.98;;
81908;SDS011;71372;43.514;1.512;2023-08-08T06:25:32;3.65;;;1.85;;
81908;SDS011;71372;43.514;1.512;2023-08-08T06:27:59;3.78;;;1.70;;
81908;SDS011;71372;43.514;1.512;2023-08-08T06:30:24;2.72;;;1.65;;
81908;SDS011;71372;43.514;1.512;2023-08-08T06:32:52;7.22;;;2.00;;
81908;SDS011;71372;43.514;1.512;2023-08-08T06:35:18;8.45;;;2.20;;
81908;SDS011;71372;43.514;1.512;2023-08-08T06:37:44;4.05;;;2.13;;
81908;SDS011;71372;43.514;1.512;2023-08-08T06:40:10;3.30;;;1.80;;
81908;SDS011;71372;43.514;1.512;2023-08-08T06:42:37;4.40;;;1.80;;
81908;SDS011;71372;43.514;1.512;2023-08-08T06:45:03;2.75;;;1.70;;
81908;SDS011;71372;43.514;1.512;2023-08-08T06:47:29;4.05;;;2.10;;
81908;SDS011;71372;43.514;1.512;2023-08-08T06:49:55;3.40;;;1.45;;
81908;SDS011;71372;43.514;1.512;2023-08-08T06:52:21;4.45;;;1.88;;
81908;SDS011;71372;43.514;1.512;2023-08-08T06:54:47;6.82;;;2.15;;
81908;SDS011;71372;43.514;1.512;2023-08-08T06:57:13;3.92;;;1.77;;
81908;SDS011;71372;43.514;1.512;2023-08-08T06:59:39;4.70;;;1.90;;
81908;SDS011;71372;43.514;1.512;2023-08-08T07:02:05;5.10;;;2.10;;
81908;SDS011;71372;43.514;1.512;2023-08-08T07:04:31;2.80;;;1.73;;
81908;SDS011;71372;43.514;1.512;2023-08-08T07:06:57;6.45;;;1.85;;
81908;SDS011;71372;43.514;1.512;2023-08-08T07:09:23;4.30;;;1.70;;
81908;SDS011;71372;43.514;1.512;2023-08-08T07:11:50;7.45;;;2.30;;
81908;SDS011;71372;43.514;1.512;2023-08-08T07:14:16;4.57;;;1.60;;
81908;SDS011;71372;43.514;1.512;2023-08-08T07:16:42;4.65;;;1.40;;
81908;SDS011;71372;43.514;1.512;2023-08-08T07:19:08;3.47;;;1.73;;
81908;SDS011;71372;43.514;1.512;2023-08-08T07:21:34;3.65;;;1.80;;
81908;SDS011;71372;43.514;1.512;2023-08-08T07:24:00;5.82;;;1.63;;
81908;SDS011;71372;43.514;1.512;2023-08-08T07:26:26;4.35;;;1.67;;
81908;SDS011;71372;43.514;1.512;2023-08-08T07:28:52;5.03;;;1.63;;
81908;SDS011;71372;43.514;1.512;2023-08-08T07:31:18;4.97;;;1.67;;
81908;SDS011;71372;43.514;1.512;2023-08-08T07:33:44;3.30;;;1.85;;
81908;SDS011;71372;43.514;1.512;2023-08-08T07:36:10;3.35;;;1.60;;
81908;SDS011;71372;43.514;1.512;2023-08-08T07:38:36;4.40;;;1.75;;
81908;SDS011;71372;43.514;1.512;2023-08-08T07:41:03;5.60;;;1.90;;
81908;SDS011;71372;43.514;1.512;2023-08-08T07:43:29;4.55;;;1.77;;
81908;SDS011;71372;43.514;1.512;2023-08-08T07:45:55;3.03;;;1.42;;
81908;SDS011;71372;43.514;1.512;2023-08-08T07:48:21;4.05;;;1.50;;
81908;SDS011;71372;43.514;1.512;2023-08-08T07:50:47;5.18;;;1.48;;
81908;SDS011;71372;43.514;1.512;2023-08-08T07:53:13;3.38;;;1.65;;
81908;SDS011;71372;43.514;1.512;2023-08-08T07:55:39;4.57;;;1.38;;
81908;SDS011;71372;43.514;1.512;2023-08-08T07:58:05;4.15;;;1.60;;
81908;SDS011;71372;43.514;1.512;2023-08-08T08:00:31;4.82;;;1.67;;
81908;SDS011;71372;43.514;1.512;2023-08-08T08:02:57;5.45;;;1.55;;
81908;SDS011;71372;43.514;1.512;2023-08-08T08:05:23;4.45;;;1.88;;
81908;SDS011;71372;43.514;1.512;2023-08-08T08:07:48;3.30;;;1.40;;
81908;SDS011;71372;43.514;1.512;2023-08-08T08:10:14;4.07;;;1.50;;
81908;SDS011;71372;43.514;1.512;2023-08-08T08:12:41;3.97;;;1.73;;
81908;SDS011;71372;43.514;1.512;2023-08-08T08:15:08;4.68;;;1.67;;
81908;SDS011;71372;43.514;1.512;2023-08-08T08:17:35;4.10;;;1.73;;
81908;SDS011;71372;43.514;1.512;2023-08-08T08:20:01;4.22;;;1.70;;
81908;SDS011;71372;43.514;1.512;2023-08-08T08:22:31;3.15;;;1.42;;
81908;SDS011;71372;43.514;1.512;2023-08-08T08:24:57;3.13;;;1.35;;
81908;SDS011;71372;43.514;1.512;2023-08-08T08:27:23;2.90;;;1.30;;
81908;SDS011;71372;43.514;1.512;2023-08-08T08:29:49;3.25;;;1.60;;
81908;SDS011;71372;43.514;1.512;2023-08-08T08:32:15;3.50;;;1.27;;
81908;SDS011;71372;43.514;1.512;2023-08-08T08:34:41;3.80;;;1.30;;
81908;SDS011;71372;43.514;1.512;2023-08-08T08:37:07;2.42;;;1.20;;
81908;SDS011;71372;43.514;1.512;2023-08-08T08:39:33;3.78;;;1.33;;
81908;SDS011;71372;43.514;1.512;2023-08-08T08:41:59;3.05;;;1.10;;
81908;SDS011;71372;43.514;1.512;2023-08-08T08:44:30;3.42;;;1.25;;
81908;SDS011;71372;43.514;1.512;2023-08-08T08:47:01;2.60;;;1.33;;
81908;SDS011;71372;43.514;1.512;2023-08-08T08:49:31;4.03;;;1.42;;
81908;SDS011;71372;43.514;1.512;2023-08-08T08:51:57;2.13;;;1.30;;
81908;SDS011;71372;43.514;1.512;2023-08-08T08:54:30;1.75;;;1.20;;
81908;SDS011;71372;43.514;1.512;2023-08-08T08:56:57;4.10;;;1.27;;
81908;SDS011;71372;43.514;1.512;2023-08-08T08:59:24;4.60;;;1.30;;
81908;SDS011;71372;43.514;1.512;2023-08-08T09:01:50;3.88;;;1.25;;
81908;SDS011;71372;43.514;1.512;2023-08-08T09:04:18;1.95;;;1.17;;
81908;SDS011;71372;43.514;1.512;2023-08-08T09:06:46;4.60;;;1.23;;
81908;SDS011;71372;43.514;1.512;2023-08-08T09:09:12;2.50;;;1.17;;
81908;SDS011;71372;43.514;1.512;2023-08-08T09:11:45;2.28;;;1.10;;
81908;SDS011;71372;43.514;1.512;2023-08-08T09:14:20;6.38;;;1.38;;
81908;SDS011;71372;43.514;1.512;2023-08-08T09:16:47;2.92;;;1.13;;
81908;SDS011;71372;43.514;1.512;2023-08-08T09:19:15;2.63;;;1.30;;
81908;SDS011;71372;43.514;1.512;2023-08-08T09:21:41;4.53;;;1.23;;
81908;SDS011;71372;43.514;1.512;2023-08-08T09:24:07;3.53;;;1.10;;
81908;SDS011;71372;43.514;1.512;2023-08-08T09:26:33;3.00;;;1.13;;
81908;SDS011;71372;43.514;1.512;2023-08-08T09:29:00;6.05;;;1.30;;
81908;SDS011;71372;43.514;1.512;2023-08-08T09:31:28;3.75;;;1.30;;
81908;SDS011;71372;43.514;1.512;2023-08-08T09:33:55;2.80;;;1.30;;
81908;SDS011;71372;43.514;1.512;2023-08-08T09:36:23;4.53;;;1.10;;
81908;SDS011;71372;43.514;1.512;2023-08-08T09:41:21;4.10;;;1.40;;
81908;SDS011;71372;43.514;1.512;2023-08-08T09:43:48;5.95;;;1.50;;
81908;SDS011;71372;43.514;1.512;2023-08-08T09:46:15;5.22;;;1.48;;
81908;SDS011;71372;43.514;1.512;2023-08-08T09:48:42;4.30;;;1.60;;
81908;SDS011;71372;43.514;1.512;2023-08-08T09:51:09;7.80;;;1.60;;
81908;SDS011;71372;43.514;1.512;2023-08-08T09:53:35;4.80;;;1.83;;
81908;SDS011;71372;43.514;1.512;2023-08-08T09:56:02;3.17;;;1.58;;
81908;SDS011;71372;43.514;1.512;2023-08-08T09:58:29;2.78;;;1.20;;
81908;SDS011;71372;43.514;1.512;2023-08-08T10:00:56;4.47;;;1.38;;
81908;SDS011;71372;43.514;1.512;2023-08-08T10:03:22;3.70;;;1.13;;
81908;SDS011;71372;43.514;1.512;2023-08-08T10:05:48;2.53;;;1.40;;
81908;SDS011;71372;43.514;1.512;2023-08-08T10:08:15;2.47;;;1.02;;
81908;SDS011;71372;43.514;1.512;2023-08-08T10:10:45;2.08;;;1.23;;
81908;SDS011;71372;43.514;1.512;2023-08-08T10:13:22;4.75;;;1.30;;
81908;SDS011;71372;43.514;1.512;2023-08-08T10:15:49;3.20;;;1.35;;
81908;SDS011;71372;43.514;1.512;2023-08-08T10:18:17;6.43;;;1.40;;
81908;SDS011;71372;43.514;1.512;2023-08-08T10:20:44;3.08;;;1.30;;
81908;SDS011;71372;43.514;1.512;2023-08-08T10:23:16;2.72;;;1.45;;
81908;SDS011;71372;43.514;1.512;2023-08-08T10:25:44;2.78;;;1.35;;
81908;SDS011;71372;43.514;1.512;2023-08-08T10:28:13;4.05;;;1.30;;
81908;SDS011;71372;43.514;1.512;2023-08-08T10:30:44;3.42;;;1.40;;
81908;SDS011;71372;43.514;1.512;2023-08-08T10:33:16;2.05;;;1.20;;
81908;SDS011;71372;43.514;1.512;2023-08-08T10:38:25;4.90;;;1.40;;
81908;SDS011;71372;43.514;1.512;2023-08-08T10:40:56;3.63;;;1.25;;
81908;SDS011;71372;43.514;1.512;2023-08-08T10:43:26;7.43;;;1.40;;
81908;SDS011;71372;43.514;1.512;2023-08-08T10:45:56;4.80;;;1.60;;
81908;SDS011;71372;43.514;1.512;2023-08-08T10:48:24;2.30;;;1.20;;
81908;SDS011;71372;43.514;1.512;2023-08-08T10:50:54;2.35;;;1.23;;
81908;SDS011;71372;43.514;1.512;2023-08-08T10:53:30;3.08;;;1.35;;
81908;SDS011;71372;43.514;1.512;2023-08-08T10:55:57;3.22;;;1.30;;
81908;SDS011;71372;43.514;1.512;2023-08-08T10:58:34;3.38;;;1.30;;
81908;SDS011;71372;43.514;1.512;2023-08-08T11:01:04;3.20;;;1.30;;
81908;SDS011;71372;43.514;1.512;2023-08-08T11:03:44;2.80;;;1.40;;
81908;SDS011;71372;43.514;1.512;2023-08-08T11:06:11;2.90;;;1.58;;
81908;SDS011;71372;43.514;1.512;2023-08-08T11:08:38;3.97;;;1.60;;
81908;SDS011;71372;43.514;1.512;2023-08-08T11:11:05;3.40;;;1.52;;
81908;SDS011;71372;43.514;1.512;2023-08-08T11:15:57;2.80;;;1.58;;
81908;SDS011;71372;43.514;1.512;2023-08-08T11:18:24;5.30;;;1.60;;
81908;SDS011;71372;43.514;1.512;2023-08-08T11:20:51;2.95;;;1.13;;
81908;SDS011;71372;43.514;1.512;2023-08-08T11:23:17;3.92;;;1.42;;
81908;SDS011;71372;43.514;1.512;2023-08-08T11:25:45;5.05;;;1.60;;
81908;SDS011;71372;43.514;1.512;2023-08-08T11:28:11;4.30;;;1.70;;
81908;SDS011;71372;43.514;1.512;2023-08-08T11:30:38;3.78;;;1.50;;
81908;SDS011;71372;43.514;1.512;2023-08-08T11:33:07;3.17;;;1.60;;
81908;SDS011;71372;43.514;1.512;2023-08-08T11:35:33;2.78;;;1.30;;
81908;SDS011;71372;43.514;1.512;2023-08-08T11:37:59;3.15;;;1.27;;
81908;SDS011;71372;43.514;1.512;2023-08-08T11:40:28;4.15;;;1.30;;
81908;SDS011;71372;43.514;1.512;2023-08-08T11:42:55;3.25;;;1.42;;
81908;SDS011;71372;43.514;1.512;2023-08-08T11:45:25;2.65;;;1.30;;
81908;SDS011;71372;43.514;1.512;2023-08-08T11:47:53;4.60;;;1.58;;
81908;SDS011;71372;43.514;1.512;2023-08-08T11:50:21;3.33;;;1.48;;
81908;SDS011;71372;43.514;1.512;2023-08-08T11:52:49;3.40;;;1.55;;
81908;SDS011;71372;43.514;1.512;2023-08-08T11:55:18;3.13;;;1.60;;
81908;SDS011;71372;43.514;1.512;2023-08-08T11:57:48;2.75;;;1.52;;
81908;SDS011;71372;43.514;1.512;2023-08-08T12:00:14;6.45;;;1.60;;
81908;SDS011;71372;43.514;1.512;2023-08-08T12:02:44;3.50;;;1.60;;
81908;SDS011;71372;43.514;1.512;2023-08-08T12:05:11;2.50;;;1.50;;
81908;SDS011;71372;43.514;1.512;2023-08-08T12:07:39;4.95;;;1.75;;
81908;SDS011;71372;43.514;1.512;2023-08-08T12:10:13;2.15;;;1.60;;
81908;SDS011;71372;43.514;1.512;2023-08-08T12:12:41;2.67;;;1.48;;
81908;SDS011;71372;43.514;1.512;2023-08-08T12:15:08;4.35;;;1.55;;
81908;SDS011;71372;43.514;1.512;2023-08-08T12:20:05;2.47;;;1.35;;
81908;SDS011;71372;43.514;1.512;2023-08-08T12:22:33;3.60;;;1.70;;
81908;SDS011;71372;43.514;1.512;2023-08-08T12:24:59;3.58;;;1.70;;
81908;SDS011;71372;43.514;1.512;2023-08-08T12:27:25;4.97;;;1.92;;
81908;SDS011;71372;43.514;1.512;2023-08-08T12:29:51;3.30;;;1.77;;
81908;SDS011;71372;43.514;1.512;2023-08-08T12:32:20;3.58;;;1.67;;
81908;SDS011;71372;43.514;1.512;2023-08-08T12:34:50;3.67;;;1.80;;
81908;SDS011;71372;43.514;1.512;2023-08-08T12:37:16;3.70;;;1.92;;
81908;SDS011;71372;43.514;1.512;2023-08-08T12:39:43;6.00;;;1.80;;
81908;SDS011;71372;43.514;1.512;2023-08-08T12:42:10;3.83;;;1.52;;
81908;SDS011;71372;43.514;1.512;2023-08-08T12:44:36;2.75;;;1.77;;
81908;SDS011;71372;43.514;1.512;2023-08-08T12:47:02;4.13;;;1.70;;
81908;SDS011;71372;43.514;1.512;2023-08-08T12:49:28;3.20;;;1.90;;
81908;SDS011;71372;43.514;1.512;2023-08-08T12:51:54;3.10;;;1.77;;
81908;SDS011;71372;43.514;1.512;2023-08-08T12:54:21;6.18;;;1.70;;
81908;SDS011;71372;43.514;1.512;2023-08-08T12:56:47;3.72;;;1.80;;
81908;SDS011;71372;43.514;1.512;2023-08-08T12:59:14;3.65;;;1.95;;
81908;SDS011;71372;43.514;1.512;2023-08-08T13:01:40;4.53;;;1.85;;
81908;SDS011;71372;43.514;1.512;2023-08-08T13:04:06;2.90;;;2.03;;
81908;SDS011;71372;43.514;1.512;2023-08-08T13:06:32;4.15;;;1.92;;
81908;SDS011;71372;43.514;1.512;2023-08-08T13:11:26;3.30;;;1.75;;
81908;SDS011;71372;43.514;1.512;2023-08-08T13:13:52;3.55;;;2.00;;
81908;SDS011;71372;43.514;1.512;2023-08-08T13:16:18;3.00;;;2.08;;
81908;SDS011;71372;43.514;1.512;2023-08-08T13:18:44;4.10;;;2.35;;
81908;SDS011;71372;43.514;1.512;2023-08-08T13:21:10;3.58;;;2.15;;
81908;SDS011;71372;43.514;1.512;2023-08-08T13:23:36;5.15;;;2.00;;
81908;SDS011;71372;43.514;1.512;2023-08-08T13:26:02;3.47;;;1.95;;
81908;SDS011;71372;43.514;1.512;2023-08-08T13:28:29;3.10;;;1.60;;
81908;SDS011;71372;43.514;1.512;2023-08-08T13:30:55;3.47;;;1.95;;
81908;SDS011;71372;43.514;1.512;2023-08-08T13:33:21;4.15;;;2.15;;
81908;SDS011;71372;43.514;1.512;2023-08-08T13:35:48;5.47;;;2.25;;
81908;SDS011;71372;43.514;1.512;2023-08-08T13:38:13;3.90;;;1.90;;
81908;SDS011;71372;43.514;1.512;2023-08-08T13:40:40;6.28;;;2.22;;
81908;SDS011;71372;43.514;1.512;2023-08-08T13:43:07;5.45;;;2.25;;
81908;SDS011;71372;43.514;1.512;2023-08-08T13:45:33;3.65;;;2.10;;
81908;SDS011;71372;43.514;1.512;2023-08-08T13:47:59;5.65;;;2.10;;
81908;SDS011;71372;43.514;1.512;2023-08-08T13:50:25;3.83;;;2.17;;
81908;SDS011;71372;43.514;1.512;2023-08-08T13:52:51;4.13;;;2.28;;
81908;SDS011;71372;43.514;1.512;2023-08-08T13:55:18;3.20;;;1.75;;
81908;SDS011;71372;43.514;1.512;2023-08-08T13:57:44;5.18;;;2.00;;
81908;SDS011;71372;43.514;1.512;2023-08-08T14:00:11;4.38;;;1.95;;
81908;SDS011;71372;43.514;1.512;2023-08-08T14:02:38;3.92;;;1.90;;
81908;SDS011;71372;43.514;1.512;2023-08-08T14:05:05;3.08;;;1.90;;
81908;SDS011;71372;43.514;1.512;2023-08-08T14:07:32;3.83;;;2.10;;
81908;SDS011;71372;43.514;1.512;2023-08-08T14:12:25;4.25;;;2.42;;
81908;SDS011;71372;43.514;1.512;2023-08-08T14:14:51;5.30;;;2.10;;
81908;SDS011;71372;43.514;1.512;2023-08-08T14:17:20;4.47;;;2.20;;
81908;SDS011;71372;43.514;1.512;2023-08-08T14:19:46;4.22;;;2.03;;
81908;SDS011;71372;43.514;1.512;2023-08-08T14:22:12;3.55;;;1.80;;
81908;SDS011;71372;43.514;1.512;2023-08-08T14:24:38;5.18;;;2.35;;
81908;SDS011;71372;43.514;1.512;2023-08-08T14:27:04;3.92;;;2.20;;
81908;SDS011;71372;43.514;1.512;2023-08-08T14:29:30;2.67;;;2.00;;
81908;SDS011;71372;43.514;1.512;2023-08-08T14:31:56;5.00;;;2.10;;
81908;SDS011;71372;43.514;1.512;2023-08-08T14:34:28;3.95;;;2.20;;
81908;SDS011;71372;43.514;1.512;2023-08-08T14:36:56;2.80;;;1.90;;
81908;SDS011;71372;43.514;1.512;2023-08-08T14:39:23;3.30;;;1.95;;
81908;SDS011;71372;43.514;1.512;2023-08-08T14:41:49;2.90;;;2.00;;
81908;SDS011;71372;43.514;1.512;2023-08-08T14:44:16;3.50;;;2.05;;
81908;SDS011;71372;43.514;1.512;2023-08-08T14:46:43;3.75;;;2.10;;
81908;SDS011;71372;43.514;1.512;2023-08-08T14:49:08;3.33;;;2.22;;
81908;SDS011;71372;43.514;1.512;2023-08-08T14:51:35;4.10;;;2.17;;
81908;SDS011;71372;43.514;1.512;2023-08-08T14:54:01;4.85;;;2.05;;
81908;SDS011;71372;43.514;1.512;2023-08-08T14:56:28;4.97;;;2.05;;
81908;SDS011;71372;43.514;1.512;2023-08-08T14:58:54;6.95;;;2.40;;
81908;SDS011;71372;43.514;1.512;2023-08-08T15:01:20;3.03;;;2.05;;